Time;durP1;ratioP1;P1;durP2;ratioP2;P2;SDS_P1;SDS_P2;PMS_P1;PMS_P2;Temp;Humidity;BMP_temperature;BMP_pressure;BME280_temperature;BME280_humidity;BME280_pressure;Samples;Min_cycle;Max_cycle;Signal;HPM_P1;HPM_P2
2020/12/10 15:35:20;;;;;;;24.80;13.67;;;0.60;99.90;;;;;;5191900;27;20540;-67
2020/12/10 15:37:47;;;;;;;29.00;15.17;;;0.60;99.90;;;;;;5170872;27;20418;-67
2020/12/10 15:40:14;;;;;;;23.10;13.77;;;0.60;99.90;;;;;;5153603;27;20442;-67
2020/12/10 15:42:40;;;;;;;30.60;14.70;;;0.70;99.90;;;;;;5149590;27;20501;-67
2020/12/10 15:45:07;;;;;;;28.20;19.83;;;0.70;99.90;;;;;;5149701;27;20426;-67
2020/12/10 15:47:34;;;;;;;27.77;19.10;;;0.80;99.90;;;;;;5149769;27;20435;-67
2020/12/10 15:50:00;;;;;;;28.13;16.30;;;0.80;99.90;;;;;;5149635;27;20438;-67
2020/12/10 15:52:28;;;;;;;88.07;46.53;;;0.80;99.90;;;;;;5148495;27;20822;-67
2020/12/10 15:54:58;;;;;;;37.00;23.50;;;0.80;99.90;;;;;;5149002;27;20470;-67
2020/12/10 15:57:24;;;;;;;25.43;12.77;;;0.80;99.90;;;;;;5148228;27;20427;-67
2020/12/10 15:59:51;;;;;;;18.63;11.93;;;0.90;99.90;;;;;;5128822;27;20439;-66
2020/12/10 16:02:18;;;;;;;20.17;11.30;;;0.90;99.90;;;;;;5128534;28;20474;-67
2020/12/10 16:04:44;;;;;;;34.67;20.47;;;0.80;99.90;;;;;;5129467;28;20439;-67
2020/12/10 16:07:11;;;;;;;25.17;14.03;;;0.90;99.90;;;;;;5128516;28;20435;-67
2020/12/10 16:09:39;;;;;;;17.93;11.20;;;0.80;99.90;;;;;;5128178;27;20470;-66
2020/12/10 16:12:05;;;;;;;23.27;13.03;;;0.90;99.90;;;;;;5128415;28;20441;-66
2020/12/10 16:14:32;;;;;;;20.77;12.30;;;0.90;99.90;;;;;;5133854;27;20480;-67
2020/12/10 16:16:59;;;;;;;19.63;10.57;;;0.90;99.90;;;;;;5149000;27;20419;-67
2020/12/10 16:19:25;;;;;;;25.93;14.30;;;0.90;99.90;;;;;;5149466;27;20446;-68
2020/12/10 16:21:52;;;;;;;29.20;17.23;;;1.00;99.90;;;;;;5149039;27;20427;-67
2020/12/10 16:24:19;;;;;;;26.80;17.20;;;1.10;99.90;;;;;;5148954;27;20430;-67
2020/12/10 16:26:49;;;;;;;20.07;13.50;;;1.00;99.90;;;;;;5149033;27;21024;-67
2020/12/10 16:29:15;;;;;;;19.13;12.10;;;1.00;99.90;;;;;;5148462;27;20823;-68
2020/12/10 16:31:49;;;;;;;22.40;11.80;;;0.90;99.90;;;;;;5148240;27;20449;-67
2020/12/10 16:34:16;;;;;;;29.20;16.00;;;0.90;99.90;;;;;;5148274;27;20465;-67
2020/12/10 16:36:42;;;;;;;27.20;16.40;;;0.70;99.90;;;;;;5148659;27;20427;-67
2020/12/10 16:39:09;;;;;;;24.40;13.37;;;0.80;99.90;;;;;;5148627;27;20442;-67
2020/12/10 16:41:36;;;;;;;21.00;15.50;;;0.70;99.90;;;;;;5148541;27;20433;-67
2020/12/10 16:44:04;;;;;;;18.67;12.33;;;0.70;99.90;;;;;;5148362;27;20423;-67
2020/12/10 16:46:32;;;;;;;23.20;12.17;;;0.70;99.90;;;;;;5135811;27;20419;-67
2020/12/10 16:48:59;;;;;;;18.47;11.10;;;0.70;99.90;;;;;;5134712;27;20459;-67
2020/12/10 16:51:26;;;;;;;20.17;10.40;;;0.70;99.90;;;;;;5134888;27;20423;-66
2020/12/10 16:53:52;;;;;;;22.63;13.77;;;0.60;99.90;;;;;;5131163;27;20543;-67
2020/12/10 16:56:19;;;;;;;29.93;18.50;;;0.60;99.90;;;;;;5134526;27;20419;-66
2020/12/10 16:58:46;;;;;;;19.57;12.27;;;0.60;99.90;;;;;;5134036;27;20815;-66
2020/12/10 17:01:14;;;;;;;21.30;11.43;;;0.60;99.90;;;;;;5134396;27;20487;-67
2020/12/10 17:03:40;;;;;;;20.20;11.93;;;0.60;99.90;;;;;;5133458;27;20445;-68
2020/12/10 17:06:07;;;;;;;30.70;19.63;;;0.60;99.90;;;;;;5134373;27;20433;-67
2020/12/10 17:08:34;;;;;;;38.13;22.97;;;0.60;99.90;;;;;;5134203;27;20442;-65
2020/12/10 17:11:00;;;;;;;27.10;15.00;;;0.70;99.90;;;;;;5134162;27;20430;-67
2020/12/10 17:13:27;;;;;;;27.73;14.80;;;0.70;99.90;;;;;;5134090;27;20467;-67
2020/12/10 17:15:53;;;;;;;19.50;12.60;;;0.70;99.90;;;;;;5134200;27;20448;-67
2020/12/10 17:18:21;;;;;;;27.03;15.57;;;0.70;99.90;;;;;;5134130;27;20908;-67
2020/12/10 17:20:48;;;;;;;19.03;12.60;;;0.70;99.90;;;;;;5130182;27;20837;-67
2020/12/10 17:23:14;;;;;;;21.23;12.53;;;0.70;99.90;;;;;;5123038;27;20443;-67
2020/12/10 17:25:41;;;;;;;21.97;13.43;;;0.60;99.90;;;;;;5124365;27;20915;-68
2020/12/10 17:28:08;;;;;;;21.77;10.93;;;0.60;99.90;;;;;;5123948;27;20439;-68
2020/12/10 17:30:34;;;;;;;17.27;11.07;;;0.60;99.90;;;;;;5123738;27;20436;-67
2020/12/10 17:33:01;;;;;;;17.50;11.27;;;0.50;99.90;;;;;;5121995;27;20423;-71
2020/12/10 17:35:32;;;;;;;19.47;12.87;;;0.60;99.90;;;;;;5123386;27;20471;-71
2020/12/10 17:37:59;;;;;;;26.27;15.10;;;0.60;99.90;;;;;;5124150;27;20428;-69
2020/12/10 17:40:25;;;;;;;21.70;12.37;;;0.60;99.90;;;;;;5123577;27;20523;-72
2020/12/10 17:42:52;;;;;;;20.87;13.60;;;0.60;99.90;;;;;;5122925;27;20796;-69
2020/12/10 17:45:18;;;;;;;31.80;19.40;;;0.60;99.90;;;;;;5121838;27;20428;-70
2020/12/10 17:47:45;;;;;;;25.10;16.53;;;0.60;99.90;;;;;;5130766;27;20435;-70
2020/12/10 17:50:13;;;;;;;26.50;16.93;;;0.70;99.90;;;;;;5133562;27;20444;-70
2020/12/10 17:52:41;;;;;;;17.40;11.80;;;0.70;99.90;;;;;;5133300;27;20427;-70
2020/12/10 17:55:08;;;;;;;15.57;9.77;;;0.60;99.90;;;;;;5133395;27;20481;-71
2020/12/10 17:57:34;;;;;;;14.97;10.13;;;0.50;99.90;;;;;;5132290;27;20443;-71
2020/12/10 18:00:01;;;;;;;13.93;9.87;;;0.50;99.90;;;;;;5132818;27;20447;-69
2020/12/10 18:02:28;;;;;;;13.20;9.20;;;0.60;99.90;;;;;;5133232;27;20422;-70
2020/12/10 18:04:59;;;;;;;17.30;12.17;;;0.60;99.90;;;;;;5133371;27;20424;-69
2020/12/10 18:07:25;;;;;;;15.57;11.07;;;0.60;99.90;;;;;;5114306;27;20424;-69
2020/12/10 18:09:53;;;;;;;20.80;12.70;;;0.60;99.90;;;;;;5122024;27;20443;-71
2020/12/10 18:12:21;;;;;;;18.13;13.10;;;0.60;99.90;;;;;;5131352;27;20869;-67
2020/12/10 18:14:48;;;;;;;21.40;12.80;;;0.60;99.90;;;;;;5128833;27;20471;-67
2020/12/10 18:17:16;;;;;;;21.77;14.10;;;0.50;99.90;;;;;;5122009;27;20423;-71
2020/12/10 18:19:46;;;;;;;18.97;11.67;;;0.50;99.90;;;;;;5123222;27;20511;-71
2020/12/10 18:22:13;;;;;;;24.30;14.47;;;0.50;99.90;;;;;;5120337;27;20434;-70
2020/12/10 18:24:39;;;;;;;19.30;11.57;;;0.50;99.90;;;;;;5123182;27;20944;-70
2020/12/10 18:27:07;;;;;;;21.57;12.50;;;0.50;99.90;;;;;;5121209;27;20440;-71
2020/12/10 18:29:34;;;;;;;32.40;19.13;;;0.50;99.90;;;;;;5124046;27;20459;-69
2020/12/10 18:32:01;;;;;;;38.97;21.90;;;0.50;99.90;;;;;;5122997;27;20431;-69
2020/12/10 18:34:27;;;;;;;54.77;28.43;;;0.40;99.90;;;;;;5120349;27;20591;-68
2020/12/10 18:36:56;;;;;;;39.63;21.43;;;0.50;99.90;;;;;;5122208;27;20417;-69
2020/12/10 18:39:23;;;;;;;31.80;20.33;;;0.50;99.90;;;;;;5123056;27;20839;-69
2020/12/10 18:41:50;;;;;;;44.63;24.00;;;0.50;99.90;;;;;;5121295;27;20445;-68
2020/12/10 18:44:17;;;;;;;36.37;21.00;;;0.50;99.90;;;;;;5126322;27;20433;-68
2020/12/10 18:46:44;;;;;;;26.50;17.20;;;0.50;99.90;;;;;;5132520;27;20426;-69
2020/12/10 18:49:11;;;;;;;25.73;16.97;;;0.50;99.90;;;;;;5132448;27;20487;-69
2020/12/10 18:51:38;;;;;;;27.40;16.10;;;0.50;99.90;;;;;;5131997;27;20411;-69
2020/12/10 18:54:05;;;;;;;21.77;13.60;;;0.50;99.90;;;;;;5123551;27;20466;-68
2020/12/10 18:56:33;;;;;;;20.53;13.50;;;0.50;99.90;;;;;;5123711;27;20835;-68
2020/12/10 18:59:02;;;;;;;28.37;16.07;;;0.50;99.90;;;;;;5121889;27;20554;-68
2020/12/10 19:01:36;;;;;;;22.80;16.20;;;0.50;99.90;;;;;;5120730;27;20431;-68
2020/12/10 19:04:02;;;;;;;21.10;13.20;;;0.50;99.90;;;;;;5123471;27;20431;-68
2020/12/10 19:06:29;;;;;;;19.00;13.23;;;0.50;99.90;;;;;;5120247;27;20424;-70
2020/12/10 19:08:56;;;;;;;19.27;14.23;;;0.50;99.90;;;;;;5121877;27;20435;-70
2020/12/10 19:11:22;;;;;;;25.50;16.90;;;0.60;99.90;;;;;;5121582;27;20423;-70
2020/12/10 19:13:49;;;;;;;23.40;14.23;;;0.70;99.90;;;;;;5129046;27;20569;-70
2020/12/10 19:16:17;;;;;;;23.90;13.43;;;0.70;99.90;;;;;;5122517;27;20426;-69
2020/12/10 19:18:44;;;;;;;20.90;12.50;;;0.70;99.90;;;;;;5121079;27;20837;-70
2020/12/10 19:21:11;;;;;;;18.53;12.70;;;0.60;99.90;;;;;;5122740;27;21195;-70
2020/12/10 19:23:38;;;;;;;24.30;14.20;;;0.60;99.90;;;;;;5120306;27;20789;-70
2020/12/10 19:26:05;;;;;;;27.70;13.60;;;0.60;99.90;;;;;;5121223;28;20426;-70
2020/12/10 19:28:31;;;;;;;21.77;14.20;;;0.60;99.90;;;;;;5122983;27;20432;-70
2020/12/10 19:30:58;;;;;;;22.87;16.20;;;0.50;99.90;;;;;;5120150;27;20520;-70
2020/12/10 19:33:25;;;;;;;23.37;16.60;;;0.50;99.90;;;;;;5120979;28;20450;-70
2020/12/10 19:35:53;;;;;;;26.30;15.30;;;0.60;99.90;;;;;;5130974;28;20442;-70
2020/12/10 19:38:20;;;;;;;29.27;17.80;;;0.50;99.90;;;;;;5131441;27;20426;-70
2020/12/10 19:40:46;;;;;;;23.80;16.60;;;0.50;99.90;;;;;;5131831;27;20864;-69
2020/12/10 19:43:13;;;;;;;22.97;14.33;;;0.50;99.90;;;;;;5131544;27;20428;-70
2020/12/10 19:45:41;;;;;;;20.60;13.67;;;0.50;99.90;;;;;;5130731;28;20811;-70
2020/12/10 19:48:08;;;;;;;23.03;13.87;;;0.60;99.90;;;;;;5122768;27;20436;-70
2020/12/10 19:50:36;;;;;;;20.87;12.17;;;0.60;99.90;;;;;;5121416;27;20800;-70
2020/12/10 19:53:04;;;;;;;18.47;11.57;;;0.50;99.90;;;;;;5111069;28;20428;-69
2020/12/10 19:55:38;;;;;;;21.83;13.00;;;0.50;99.90;;;;;;5110926;28;20467;-71
2020/12/10 19:58:05;;;;;;;18.47;11.63;;;0.50;99.90;;;;;;5117172;28;20480;-70
2020/12/10 20:00:32;;;;;;;17.77;12.00;;;0.50;99.90;;;;;;5131144;27;20443;-71
2020/12/10 20:02:59;;;;;;;19.03;11.60;;;0.50;99.90;;;;;;5131393;27;20435;-70
2020/12/10 20:05:26;;;;;;;17.20;12.10;;;0.50;99.90;;;;;;5131534;28;20431;-71
2020/12/10 20:07:53;;;;;;;17.60;11.80;;;0.50;99.90;;;;;;5131452;27;20439;-71
2020/12/10 20:10:21;;;;;;;22.07;14.23;;;0.50;99.90;;;;;;5131377;27;20519;-70
2020/12/10 20:12:50;;;;;;;25.10;16.07;;;0.50;99.90;;;;;;5131581;27;20761;-70
2020/12/10 20:15:16;;;;;;;27.37;15.77;;;0.60;99.90;;;;;;5130975;28;20463;-71
2020/12/10 20:17:43;;;;;;;25.67;16.50;;;0.70;99.90;;;;;;5131466;28;20416;-71
2020/12/10 20:20:10;;;;;;;22.20;16.63;;;0.70;99.90;;;;;;5131749;27;20447;-71
2020/12/10 20:22:37;;;;;;;20.07;12.93;;;0.60;99.90;;;;;;5133985;27;21112;-71
2020/12/10 20:25:07;;;;;;;19.70;13.87;;;0.60;99.90;;;;;;5135007;27;20923;-71
2020/12/10 20:27:35;;;;;;;19.43;11.50;;;0.50;99.90;;;;;;5133578;27;21028;-71
2020/12/10 20:30:01;;;;;;;18.77;11.43;;;0.50;99.90;;;;;;5114033;28;20491;-71
2020/12/10 20:32:28;;;;;;;17.70;11.27;;;0.50;99.90;;;;;;5114620;28;20424;-71
2020/12/10 20:34:55;;;;;;;21.43;13.03;;;0.50;99.90;;;;;;5126176;27;20471;-71
2020/12/10 20:37:22;;;;;;;19.43;12.80;;;0.40;99.90;;;;;;5134944;27;20942;-71
2020/12/10 20:39:49;;;;;;;17.93;11.50;;;0.40;99.90;;;;;;5134769;27;20447;-71
2020/12/10 20:42:16;;;;;;;19.70;12.53;;;0.50;99.90;;;;;;5134664;27;20419;-71
2020/12/10 20:44:44;;;;;;;18.20;12.00;;;0.40;99.90;;;;;;5134706;27;20959;-71
2020/12/10 20:47:10;;;;;;;21.50;13.53;;;0.30;99.90;;;;;;5134685;27;20431;-71
2020/12/10 20:49:37;;;;;;;20.50;13.03;;;0.30;99.90;;;;;;5133285;27;20458;-71
2020/12/10 20:52:06;;;;;;;17.47;11.30;;;0.30;99.90;;;;;;5133162;27;20438;-71
2020/12/10 20:54:32;;;;;;;18.93;12.03;;;0.30;99.90;;;;;;5134427;27;20972;-71
2020/12/10 20:56:59;;;;;;;15.30;10.47;;;0.30;99.90;;;;;;5134534;27;20924;-71
2020/12/10 20:59:25;;;;;;;17.70;11.77;;;0.20;99.90;;;;;;5132471;27;20978;-71
2020/12/10 21:01:53;;;;;;;22.17;13.63;;;0.20;99.90;;;;;;5134137;27;20795;-71
2020/12/10 21:04:20;;;;;;;20.93;11.40;;;0.20;99.90;;;;;;5134595;27;20431;-71
2020/12/10 21:06:46;;;;;;;17.47;11.57;;;0.20;99.90;;;;;;5134266;27;20954;-71
2020/12/10 21:09:13;;;;;;;20.47;12.70;;;0.30;99.90;;;;;;5134241;27;20461;-71
2020/12/10 21:11:40;;;;;;;23.43;12.37;;;0.20;99.90;;;;;;5134219;27;20792;-71
2020/12/10 21:14:06;;;;;;;18.43;12.00;;;0.30;99.90;;;;;;5134127;27;20524;-71
2020/12/10 21:16:33;;;;;;;23.10;14.33;;;0.20;99.90;;;;;;5134203;27;20442;-71
2020/12/10 21:19:01;;;;;;;18.23;12.40;;;0.20;99.90;;;;;;5134139;27;20525;-71
2020/12/10 21:21:27;;;;;;;20.63;11.93;;;0.20;99.90;;;;;;5134001;27;20426;-71
2020/12/10 21:23:54;;;;;;;19.70;11.63;;;0.10;99.90;;;;;;5133267;27;20439;-71
2020/12/10 21:26:21;;;;;;;19.63;12.53;;;0.10;99.90;;;;;;5134266;27;20523;-75
2020/12/10 21:28:48;;;;;;;16.83;12.57;;;0.10;99.90;;;;;;5122048;27;20532;-74
2020/12/10 21:31:16;;;;;;;18.23;12.53;;;0.20;99.90;;;;;;5113398;28;20430;-74
2020/12/10 21:33:44;;;;;;;23.53;12.80;;;0.20;99.90;;;;;;5113636;28;20960;-74
2020/12/10 21:36:12;;;;;;;19.13;11.53;;;0.10;99.90;;;;;;5113959;28;20436;-73
2020/12/10 21:38:39;;;;;;;21.27;12.63;;;0.20;99.90;;;;;;5113749;28;20425;-74
2020/12/10 21:41:05;;;;;;;22.73;13.00;;;0.20;99.90;;;;;;5113484;28;20435;-74
2020/12/10 21:43:32;;;;;;;23.13;12.50;;;0.10;99.90;;;;;;5113361;28;20436;-74
2020/12/10 21:45:59;;;;;;;22.23;13.53;;;0.00;99.90;;;;;;5113731;28;20428;-73
2020/12/10 21:48:26;;;;;;;20.63;12.17;;;0.00;99.90;;;;;;5113414;28;20420;-74
2020/12/10 21:50:52;;;;;;;20.83;12.53;;;0.10;99.90;;;;;;5113256;28;20421;-74
2020/12/10 21:53:20;;;;;;;23.00;13.60;;;0.00;99.90;;;;;;5113015;28;20438;-74
2020/12/10 21:55:46;;;;;;;20.63;13.23;;;0.00;99.90;;;;;;5113290;28;20470;-74
2020/12/10 21:58:13;;;;;;;24.80;11.90;;;0.00;99.90;;;;;;5113279;28;20435;-74
2020/12/10 22:00:40;;;;;;;22.47;12.37;;;-0.10;99.90;;;;;;5112661;28;20446;-74
2020/12/10 22:03:07;;;;;;;21.90;12.20;;;-0.10;99.90;;;;;;5113426;28;20893;-74
2020/12/10 22:05:34;;;;;;;19.57;12.03;;;-0.10;99.90;;;;;;5112967;28;21015;-74
2020/12/10 22:08:01;;;;;;;18.67;11.23;;;-0.10;99.90;;;;;;5112937;28;20435;-73
2020/12/10 22:10:28;;;;;;;19.20;12.00;;;0.00;99.90;;;;;;5132422;27;21006;-73
2020/12/10 22:12:57;;;;;;;19.53;11.67;;;0.00;99.90;;;;;;5133628;27;20441;-74
2020/12/10 22:15:24;;;;;;;24.80;12.93;;;-0.10;99.90;;;;;;5133232;27;21108;-74
2020/12/10 22:17:50;;;;;;;19.67;12.80;;;0.00;99.90;;;;;;5133591;27;20518;-74
2020/12/10 22:20:18;;;;;;;20.87;12.60;;;0.00;99.90;;;;;;5133128;27;20440;-74
2020/12/10 22:22:45;;;;;;;20.33;11.57;;;0.00;99.90;;;;;;5133022;27;20428;-73
2020/12/10 22:25:11;;;;;;;25.37;13.87;;;-0.10;99.90;;;;;;5133315;27;20437;-74
2020/12/10 22:27:39;;;;;;;20.87;11.40;;;0.00;99.90;;;;;;5133298;27;20428;-74
2020/12/10 22:30:06;;;;;;;22.60;13.33;;;0.00;99.90;;;;;;5132365;27;20475;-73
2020/12/10 22:32:32;;;;;;;22.67;12.50;;;0.00;99.90;;;;;;5133034;27;20430;-74
2020/12/10 22:34:59;;;;;;;20.60;12.70;;;0.00;99.90;;;;;;5132933;27;20486;-73
2020/12/10 22:37:26;;;;;;;26.00;13.83;;;-0.10;99.90;;;;;;5132947;27;20433;-74
2020/12/10 22:39:52;;;;;;;27.17;12.20;;;-0.10;99.90;;;;;;5132567;27;20443;-75
2020/12/10 22:42:19;;;;;;;23.00;13.80;;;-0.10;99.90;;;;;;5131630;27;20461;-74
2020/12/10 22:44:47;;;;;;;19.73;11.10;;;-0.20;99.90;;;;;;5132155;27;20807;-73
2020/12/10 22:47:13;;;;;;;23.00;12.13;;;-0.20;99.90;;;;;;5132813;27;20449;-74
2020/12/10 22:49:40;;;;;;;24.07;13.40;;;-0.30;99.90;;;;;;5132832;27;20483;-73
2020/12/10 22:52:07;;;;;;;26.27;13.70;;;-0.30;99.90;;;;;;5132682;27;20463;-74
2020/12/10 22:54:34;;;;;;;21.80;12.10;;;-0.30;99.90;;;;;;5132520;27;20481;-73
2020/12/10 22:57:00;;;;;;;22.27;11.90;;;-0.30;99.90;;;;;;5132250;27;20423;-73
2020/12/10 22:59:27;;;;;;;20.37;12.87;;;-0.30;99.90;;;;;;5132135;27;20450;-73
2020/12/10 23:01:55;;;;;;;20.43;11.93;;;-0.30;99.90;;;;;;5127731;27;20458;-73
2020/12/10 23:04:21;;;;;;;25.93;14.37;;;-0.40;99.90;;;;;;5132248;27;20430;-74
2020/12/10 23:06:48;;;;;;;24.50;12.67;;;-0.30;99.90;;;;;;5132196;27;20420;-74
2020/12/10 23:09:19;;;;;;;26.10;12.67;;;-0.30;99.90;;;;;;5131923;27;20450;-73
2020/12/10 23:11:47;;;;;;;22.53;13.83;;;-0.30;99.90;;;;;;5132029;27;20447;-73
2020/12/10 23:14:13;;;;;;;23.90;13.53;;;-0.40;99.90;;;;;;5131895;27;20462;-74
2020/12/10 23:16:41;;;;;;;27.53;13.67;;;-0.30;99.90;;;;;;5131802;27;20463;-73
2020/12/10 23:19:09;;;;;;;29.27;13.63;;;-0.30;99.90;;;;;;5132081;27;20481;-73
2020/12/10 23:21:36;;;;;;;19.53;12.40;;;-0.40;99.90;;;;;;5132108;27;20478;-73
2020/12/10 23:24:04;;;;;;;21.90;14.07;;;-0.40;99.90;;;;;;5132094;27;20927;-73
2020/12/10 23:26:31;;;;;;;21.30;12.80;;;-0.40;99.90;;;;;;5132018;27;20439;-73
2020/12/10 23:28:58;;;;;;;21.87;12.20;;;-0.40;99.90;;;;;;5131733;27;20530;-73
2020/12/10 23:31:24;;;;;;;24.63;14.83;;;-0.40;99.90;;;;;;5131843;27;20514;-74
2020/12/10 23:33:51;;;;;;;24.57;13.77;;;-0.50;99.90;;;;;;5132077;28;20522;-73
2020/12/10 23:36:22;;;;;;;25.80;13.93;;;-0.60;99.90;;;;;;5132556;28;20427;-73
2020/12/10 23:38:51;;;;;;;22.93;12.10;;;-0.70;99.90;;;;;;5132365;27;20522;-74
2020/12/10 23:41:18;;;;;;;23.27;14.17;;;-0.80;99.90;;;;;;5122460;28;20527;-74
2020/12/10 23:43:45;;;;;;;28.20;14.93;;;-0.80;99.90;;;;;;5111641;28;20474;-74
2020/12/10 23:46:14;;;;;;;20.67;13.13;;;-0.70;99.90;;;;;;5111669;28;20515;-73
2020/12/10 23:48:44;;;;;;;25.30;15.90;;;-0.70;99.90;;;;;;5111482;28;20447;-73
2020/12/10 23:51:14;;;;;;;23.00;13.43;;;-0.80;99.90;;;;;;5111329;28;20424;-73
2020/12/10 23:53:41;;;;;;;22.13;13.47;;;-0.70;99.90;;;;;;5111460;28;20420;-74
2020/12/10 23:56:08;;;;;;;25.00;15.37;;;-0.60;99.90;;;;;;5112985;28;20917;-73
2020/12/10 23:58:35;;;;;;;26.20;14.30;;;-0.70;99.90;;;;;;5115637;28;20420;-73
